sensor_id;sensor_type;location;lat;lon;timestamp;pressure;altitude;pressure_sealevel;temperature;humidity
37904;BME280;23738;50.422;18.758;2023-10-31T00:01:16;97048.92;;;13.97;93.56
37904;BME280;23738;50.422;18.758;2023-10-31T00:03:46;97046.59;;;13.97;93.51
37904;BME280;23738;50.422;18.758;2023-10-31T00:06:15;97041.72;;;14.00;93.53
37904;BME280;23738;50.422;18.758;2023-10-31T00:08:45;97031.30;;;14.03;93.50
37904;BME280;23738;50.422;18.758;2023-10-31T00:11:14;97030.23;;;14.05;93.45
37904;BME280;23738;50.422;18.758;2023-10-31T00:13:44;97026.14;;;14.06;93.40
37904;BME280;23738;50.422;18.758;2023-10-31T00:16:13;97020.05;;;14.07;93.40
37904;BME280;23738;50.422;18.758;2023-10-31T00:18:42;97012.04;;;14.08;93.33
37904;BME280;23738;50.422;18.758;2023-10-31T00:21:12;97008.98;;;14.11;93.29
37904;BME280;23738;50.422;18.758;2023-10-31T00:23:45;97003.55;;;14.14;93.17
37904;BME280;23738;50.422;18.758;2023-10-31T00:26:15;97004.73;;;14.14;93.13
37904;BME280;23738;50.422;18.758;2023-10-31T00:28:44;97007.19;;;14.16;93.05
37904;BME280;23738;50.422;18.758;2023-10-31T00:31:14;96997.58;;;14.16;92.92
37904;BME280;23738;50.422;18.758;2023-10-31T00:33:43;96985.26;;;14.16;92.86
37904;BME280;23738;50.422;18.758;2023-10-31T00:36:13;96975.05;;;14.16;92.69
37904;BME280;23738;50.422;18.758;2023-10-31T00:38:42;96972.15;;;14.16;92.60
37904;BME280;23738;50.422;18.758;2023-10-31T00:41:12;96968.81;;;14.17;92.53
37904;BME280;23738;50.422;18.758;2023-10-31T00:43:42;96962.75;;;14.18;92.45
37904;BME280;23738;50.422;18.758;2023-10-31T00:46:11;96959.67;;;14.17;92.39
37904;BME280;23738;50.422;18.758;2023-10-31T00:48:40;96953.83;;;14.17;92.42
37904;BME280;23738;50.422;18.758;2023-10-31T00:51:10;96939.60;;;14.21;92.32
37904;BME280;23738;50.422;18.758;2023-10-31T00:53:39;96934.88;;;14.24;92.24
37904;BME280;23738;50.422;18.758;2023-10-31T00:56:09;96934.31;;;14.28;91.94
37904;BME280;23738;50.422;18.758;2023-10-31T00:58:38;96923.12;;;14.33;91.83
37904;BME280;23738;50.422;18.758;2023-10-31T01:01:08;96923.73;;;14.38;91.69
37904;BME280;23738;50.422;18.758;2023-10-31T01:03:37;96922.33;;;14.47;91.81
37904;BME280;23738;50.422;18.758;2023-10-31T01:06:08;96911.71;;;14.53;91.62
37904;BME280;23738;50.422;18.758;2023-10-31T01:08:37;96899.40;;;14.59;91.37
37904;BME280;23738;50.422;18.758;2023-10-31T01:11:06;96888.71;;;14.64;91.00
37904;BME280;23738;50.422;18.758;2023-10-31T01:13:36;96883.61;;;14.68;90.88
37904;BME280;23738;50.422;18.758;2023-10-31T01:16:07;96882.48;;;14.70;90.72
37904;BME280;23738;50.422;18.758;2023-10-31T01:18:36;96884.42;;;14.75;90.76
37904;BME280;23738;50.422;18.758;2023-10-31T01:21:06;96872.52;;;14.81;90.55
37904;BME280;23738;50.422;18.758;2023-10-31T01:23:37;96866.13;;;14.85;90.12
37904;BME280;23738;50.422;18.758;2023-10-31T01:26:06;96867.72;;;14.85;90.02
37904;BME280;23738;50.422;18.758;2023-10-31T01:28:36;96861.77;;;14.86;89.37
37904;BME280;23738;50.422;18.758;2023-10-31T01:31:05;96852.14;;;14.87;89.34
37904;BME280;23738;50.422;18.758;2023-10-31T01:33:36;96849.16;;;14.87;88.79
37904;BME280;23738;50.422;18.758;2023-10-31T01:36:09;96843.64;;;14.91;88.88
37904;BME280;23738;50.422;18.758;2023-10-31T01:38:40;96846.86;;;14.96;88.91
37904;BME280;23738;50.422;18.758;2023-10-31T01:41:10;96854.16;;;15.02;88.59
37904;BME280;23738;50.422;18.758;2023-10-31T01:43:39;96854.36;;;15.04;88.36
37904;BME280;23738;50.422;18.758;2023-10-31T01:46:09;96854.68;;;15.05;87.94
37904;BME280;23738;50.422;18.758;2023-10-31T01:48:39;96856.44;;;15.04;87.36
37904;BME280;23738;50.422;18.758;2023-10-31T01:51:11;96842.28;;;15.03;87.57
37904;BME280;23738;50.422;18.758;2023-10-31T01:53:41;96834.96;;;15.01;87.30
37904;BME280;23738;50.422;18.758;2023-10-31T01:56:11;96824.33;;;14.97;87.04
37904;BME280;23738;50.422;18.758;2023-10-31T01:58:40;96816.52;;;14.96;87.21
37904;BME280;23738;50.422;18.758;2023-10-31T02:01:11;96818.43;;;14.97;87.01
37904;BME280;23738;50.422;18.758;2023-10-31T02:03:41;96810.56;;;15.00;86.88
37904;BME280;23738;50.422;18.758;2023-10-31T02:06:10;96813.21;;;15.00;86.57
37904;BME280;23738;50.422;18.758;2023-10-31T02:08:40;96813.73;;;15.02;86.29
37904;BME280;23738;50.422;18.758;2023-10-31T02:11:09;96801.02;;;15.03;86.02
37904;BME280;23738;50.422;18.758;2023-10-31T02:13:39;96800.23;;;15.06;85.70
37904;BME280;23738;50.422;18.758;2023-10-31T02:16:09;96793.89;;;15.09;85.45
37904;BME280;23738;50.422;18.758;2023-10-31T02:18:38;96796.43;;;15.12;85.61
37904;BME280;23738;50.422;18.758;2023-10-31T02:21:08;96790.73;;;15.17;85.33
37904;BME280;23738;50.422;18.758;2023-10-31T02:23:37;96787.61;;;15.25;85.41
37904;BME280;23738;50.422;18.758;2023-10-31T02:26:07;96780.10;;;15.31;84.98
37904;BME280;23738;50.422;18.758;2023-10-31T02:28:37;96774.22;;;15.36;84.94
37904;BME280;23738;50.422;18.758;2023-10-31T02:31:07;96768.48;;;15.38;84.52
37904;BME280;23738;50.422;18.758;2023-10-31T02:33:39;96761.44;;;15.41;83.87
37904;BME280;23738;50.422;18.758;2023-10-31T02:36:09;96756.85;;;15.42;83.82
37904;BME280;23738;50.422;18.758;2023-10-31T02:38:39;96754.92;;;15.46;81.85
37904;BME280;23738;50.422;18.758;2023-10-31T02:41:08;96752.50;;;15.51;83.70
37904;BME280;23738;50.422;18.758;2023-10-31T02:43:39;96748.58;;;15.53;83.23
37904;BME280;23738;50.422;18.758;2023-10-31T02:46:08;96749.67;;;15.59;82.97
37904;BME280;23738;50.422;18.758;2023-10-31T02:48:40;96740.06;;;15.64;82.61
37904;BME280;23738;50.422;18.758;2023-10-31T02:51:10;96742.45;;;15.67;82.02
37904;BME280;23738;50.422;18.758;2023-10-31T02:53:40;96738.60;;;15.71;81.62
37904;BME280;23738;50.422;18.758;2023-10-31T02:56:10;96741.70;;;15.76;81.00
37904;BME280;23738;50.422;18.758;2023-10-31T02:58:39;96740.23;;;15.81;81.46
37904;BME280;23738;50.422;18.758;2023-10-31T03:01:08;96740.48;;;15.85;81.20
37904;BME280;23738;50.422;18.758;2023-10-31T03:03:38;96736.50;;;15.90;80.55
37904;BME280;23738;50.422;18.758;2023-10-31T03:06:08;96738.38;;;15.96;80.01
37904;BME280;23738;50.422;18.758;2023-10-31T03:08:37;96729.51;;;16.08;79.28
37904;BME280;23738;50.422;18.758;2023-10-31T03:11:07;96720.73;;;16.21;78.82
37904;BME280;23738;50.422;18.758;2023-10-31T03:13:36;96721.19;;;16.35;77.64
37904;BME280;23738;50.422;18.758;2023-10-31T03:16:06;96710.34;;;16.45;78.55
37904;BME280;23738;50.422;18.758;2023-10-31T03:18:36;96712.62;;;16.53;78.12
37904;BME280;23738;50.422;18.758;2023-10-31T03:21:05;96708.77;;;16.54;78.04
37904;BME280;23738;50.422;18.758;2023-10-31T03:23:35;96714.17;;;16.58;77.16
37904;BME280;23738;50.422;18.758;2023-10-31T03:26:04;96712.88;;;16.59;77.16
37904;BME280;23738;50.422;18.758;2023-10-31T03:28:34;96714.85;;;16.62;75.72
37904;BME280;23738;50.422;18.758;2023-10-31T03:31:04;96708.31;;;16.66;75.76
37904;BME280;23738;50.422;18.758;2023-10-31T03:33:33;96700.59;;;16.69;76.03
37904;BME280;23738;50.422;18.758;2023-10-31T03:36:03;96697.48;;;16.71;75.85
37904;BME280;23738;50.422;18.758;2023-10-31T03:38:33;96695.55;;;16.72;74.95
37904;BME280;23738;50.422;18.758;2023-10-31T03:41:03;96683.83;;;16.77;74.80
37904;BME280;23738;50.422;18.758;2023-10-31T03:43:33;96682.61;;;16.80;74.43
37904;BME280;23738;50.422;18.758;2023-10-31T03:46:02;96682.81;;;16.82;74.13
37904;BME280;23738;50.422;18.758;2023-10-31T03:48:31;96673.86;;;16.86;74.17
37904;BME280;23738;50.422;18.758;2023-10-31T03:51:01;96672.40;;;16.89;73.58
37904;BME280;23738;50.422;18.758;2023-10-31T03:53:30;96662.91;;;16.92;73.68
37904;BME280;23738;50.422;18.758;2023-10-31T03:56:01;96655.20;;;16.94;73.76
37904;BME280;23738;50.422;18.758;2023-10-31T03:58:30;96654.81;;;16.95;73.62
37904;BME280;23738;50.422;18.758;2023-10-31T04:01:00;96651.51;;;16.96;72.78
37904;BME280;23738;50.422;18.758;2023-10-31T04:03:29;96647.27;;;16.99;72.69
37904;BME280;23738;50.422;18.758;2023-10-31T04:05:58;96646.66;;;17.00;72.93
37904;BME280;23738;50.422;18.758;2023-10-31T04:08:28;96651.10;;;17.02;72.21
37904;BME280;23738;50.422;18.758;2023-10-31T04:10:57;96643.67;;;17.03;72.49
37904;BME280;23738;50.422;18.758;2023-10-31T04:13:26;96635.93;;;17.04;72.58
37904;BME280;23738;50.422;18.758;2023-10-31T04:15:56;96630.55;;;17.03;71.37
37904;BME280;23738;50.422;18.758;2023-10-31T04:18:25;96637.64;;;17.04;71.70
37904;BME280;23738;50.422;18.758;2023-10-31T04:20:54;96634.86;;;17.05;71.87
37904;BME280;23738;50.422;18.758;2023-10-31T04:23:24;96638.11;;;17.06;71.67
37904;BME280;23738;50.422;18.758;2023-10-31T04:25:53;96644.08;;;17.07;71.51
37904;BME280;23738;50.422;18.758;2023-10-31T04:28:22;96637.80;;;17.08;71.29
37904;BME280;23738;50.422;18.758;2023-10-31T04:30:52;96635.15;;;17.10;71.10
37904;BME280;23738;50.422;18.758;2023-10-31T04:33:21;96633.61;;;17.11;70.98
37904;BME280;23738;50.422;18.758;2023-10-31T04:35:51;96627.95;;;17.10;71.17
37904;BME280;23738;50.422;18.758;2023-10-31T04:38:20;96622.29;;;17.11;70.55
37904;BME280;23738;50.422;18.758;2023-10-31T04:40:49;96623.77;;;17.13;70.30
37904;BME280;23738;50.422;18.758;2023-10-31T04:43:19;96618.11;;;17.14;69.78
37904;BME280;23738;50.422;18.758;2023-10-31T04:45:48;96618.86;;;17.16;69.69
37904;BME280;23738;50.422;18.758;2023-10-31T04:48:17;96622.99;;;17.18;69.83
37904;BME280;23738;50.422;18.758;2023-10-31T04:50:48;96622.39;;;17.19;69.00
37904;BME280;23738;50.422;18.758;2023-10-31T04:53:17;96615.60;;;17.20;68.54
37904;BME280;23738;50.422;18.758;2023-10-31T04:55:47;96617.79;;;17.20;69.76
37904;BME280;23738;50.422;18.758;2023-10-31T04:58:16;96615.61;;;17.19;69.35
37904;BME280;23738;50.422;18.758;2023-10-31T05:00:46;96614.34;;;17.19;68.41
37904;BME280;23738;50.422;18.758;2023-10-31T05:03:15;96615.55;;;17.20;67.91
37904;BME280;23738;50.422;18.758;2023-10-31T05:05:45;96619.64;;;17.22;68.52
37904;BME280;23738;50.422;18.758;2023-10-31T05:08:15;96623.14;;;17.24;68.48
37904;BME280;23738;50.422;18.758;2023-10-31T05:10:44;96625.52;;;17.24;68.04
37904;BME280;23738;50.422;18.758;2023-10-31T05:13:15;96626.52;;;17.25;68.42
37904;BME280;23738;50.422;18.758;2023-10-31T05:15:45;96628.73;;;17.24;68.07
37904;BME280;23738;50.422;18.758;2023-10-31T05:18:14;96637.64;;;17.24;67.82
37904;BME280;23738;50.422;18.758;2023-10-31T05:20:44;96638.31;;;17.22;67.63
37904;BME280;23738;50.422;18.758;2023-10-31T05:23:13;96647.06;;;17.26;68.10
37904;BME280;23738;50.422;18.758;2023-10-31T05:25:43;96653.06;;;17.24;67.54
37904;BME280;23738;50.422;18.758;2023-10-31T05:28:12;96657.98;;;17.24;67.90
37904;BME280;23738;50.422;18.758;2023-10-31T05:30:42;96659.30;;;17.24;67.39
37904;BME280;23738;50.422;18.758;2023-10-31T05:33:14;96655.68;;;17.24;67.41
37904;BME280;23738;50.422;18.758;2023-10-31T05:35:43;96656.41;;;17.25;67.76
37904;BME280;23738;50.422;18.758;2023-10-31T05:38:13;96664.08;;;17.24;67.11
37904;BME280;23738;50.422;18.758;2023-10-31T05:40:42;96665.30;;;17.24;66.53
37904;BME280;23738;50.422;18.758;2023-10-31T05:43:12;96665.55;;;17.24;66.69
37904;BME280;23738;50.422;18.758;2023-10-31T05:45:41;96664.22;;;17.24;66.52
37904;BME280;23738;50.422;18.758;2023-10-31T05:48:10;96663.51;;;17.25;66.86
37904;BME280;23738;50.422;18.758;2023-10-31T05:50:43;96667.83;;;17.24;67.08
37904;BME280;23738;50.422;18.758;2023-10-31T05:53:12;96671.98;;;17.23;66.32
37904;BME280;23738;50.422;18.758;2023-10-31T05:55:41;96678.61;;;17.23;66.52
37904;BME280;23738;50.422;18.758;2023-10-31T05:58:11;96683.19;;;17.23;66.01
37904;BME280;23738;50.422;18.758;2023-10-31T06:00:40;96685.73;;;17.24;66.44
37904;BME280;23738;50.422;18.758;2023-10-31T06:03:10;96691.36;;;17.23;66.59
37904;BME280;23738;50.422;18.758;2023-10-31T06:05:39;96699.27;;;17.22;66.48
37904;BME280;23738;50.422;18.758;2023-10-31T06:08:09;96702.04;;;17.21;66.09
37904;BME280;23738;50.422;18.758;2023-10-31T06:10:38;96707.06;;;17.21;66.08
37904;BME280;23738;50.422;18.758;2023-10-31T06:13:08;96709.04;;;17.20;66.13
37904;BME280;23738;50.422;18.758;2023-10-31T06:15:37;96707.48;;;17.16;66.40
37904;BME280;23738;50.422;18.758;2023-10-31T06:18:07;96704.26;;;17.18;65.76
37904;BME280;23738;50.422;18.758;2023-10-31T06:20:36;96701.29;;;17.17;65.89
37904;BME280;23738;50.422;18.758;2023-10-31T06:23:05;96705.77;;;17.16;65.86
37904;BME280;23738;50.422;18.758;2023-10-31T06:25:34;96709.64;;;17.15;65.14
37904;BME280;23738;50.422;18.758;2023-10-31T06:28:04;96716.38;;;17.17;65.81
37904;BME280;23738;50.422;18.758;2023-10-31T06:30:34;96714.50;;;17.18;65.44
37904;BME280;23738;50.422;18.758;2023-10-31T06:33:03;96718.48;;;17.19;64.91
37904;BME280;23738;50.422;18.758;2023-10-31T06:35:35;96732.89;;;17.22;64.64
37904;BME280;23738;50.422;18.758;2023-10-31T06:38:05;96734.64;;;17.26;64.54
37904;BME280;23738;50.422;18.758;2023-10-31T06:40:35;96741.02;;;17.30;64.79
37904;BME280;23738;50.422;18.758;2023-10-31T06:43:04;96743.00;;;17.31;64.51
37904;BME280;23738;50.422;18.758;2023-10-31T06:45:33;96744.65;;;17.32;65.05
37904;BME280;23738;50.422;18.758;2023-10-31T06:48:03;96746.53;;;17.32;65.42
37904;BME280;23738;50.422;18.758;2023-10-31T06:50:35;96752.80;;;17.30;65.60
37904;BME280;23738;50.422;18.758;2023-10-31T06:53:04;96757.66;;;17.29;65.64
37904;BME280;23738;50.422;18.758;2023-10-31T06:55:34;96755.46;;;17.25;65.65
37904;BME280;23738;50.422;18.758;2023-10-31T06:58:04;96758.67;;;17.21;65.78
37904;BME280;23738;50.422;18.758;2023-10-31T07:00:33;96765.56;;;17.18;65.75
37904;BME280;23738;50.422;18.758;2023-10-31T07:03:04;96760.73;;;17.15;65.90
37904;BME280;23738;50.422;18.758;2023-10-31T07:05:37;96757.73;;;17.13;65.89
37904;BME280;23738;50.422;18.758;2023-10-31T07:08:08;96766.66;;;17.12;65.98
37904;BME280;23738;50.422;18.758;2023-10-31T07:10:37;96765.80;;;17.11;66.27
37904;BME280;23738;50.422;18.758;2023-10-31T07:13:07;96764.59;;;17.09;66.25
37904;BME280;23738;50.422;18.758;2023-10-31T07:15:37;96774.63;;;17.06;65.99
37904;BME280;23738;50.422;18.758;2023-10-31T07:18:07;96775.49;;;17.04;66.37
37904;BME280;23738;50.422;18.758;2023-10-31T07:20:36;96778.01;;;17.03;66.24
37904;BME280;23738;50.422;18.758;2023-10-31T07:23:06;96787.41;;;17.01;66.19
37904;BME280;23738;50.422;18.758;2023-10-31T07:25:35;96786.02;;;16.98;66.26
37904;BME280;23738;50.422;18.758;2023-10-31T07:28:05;96784.85;;;16.96;66.36
37904;BME280;23738;50.422;18.758;2023-10-31T07:30:34;96791.29;;;16.93;66.48
37904;BME280;23738;50.422;18.758;2023-10-31T07:33:04;96790.42;;;16.90;66.17
37904;BME280;23738;50.422;18.758;2023-10-31T07:35:33;96799.02;;;16.87;66.46
37904;BME280;23738;50.422;18.758;2023-10-31T07:38:02;96804.11;;;16.85;66.47
37904;BME280;23738;50.422;18.758;2023-10-31T07:40:32;96815.34;;;16.82;66.33
37904;BME280;23738;50.422;18.758;2023-10-31T07:43:02;96817.11;;;16.80;66.13
37904;BME280;23738;50.422;18.758;2023-10-31T07:45:31;96821.87;;;16.77;66.25
37904;BME280;23738;50.422;18.758;2023-10-31T07:48:00;96823.88;;;16.75;66.17
37904;BME280;23738;50.422;18.758;2023-10-31T07:50:30;96821.35;;;16.70;65.50
37904;BME280;23738;50.422;18.758;2023-10-31T07:52:59;96823.19;;;16.68;65.98
37904;BME280;23738;50.422;18.758;2023-10-31T07:55:29;96825.45;;;16.64;65.48
37904;BME280;23738;50.422;18.758;2023-10-31T07:57:58;96835.91;;;16.61;65.23
37904;BME280;23738;50.422;18.758;2023-10-31T08:00:28;96834.38;;;16.59;65.73
37904;BME280;23738;50.422;18.758;2023-10-31T08:02:59;96846.40;;;16.54;66.08
37904;BME280;23738;50.422;18.758;2023-10-31T08:05:28;96854.16;;;16.50;66.20
37904;BME280;23738;50.422;18.758;2023-10-31T08:07:57;96862.92;;;16.46;65.93
37904;BME280;23738;50.422;18.758;2023-10-31T08:10:27;96873.45;;;16.42;66.31
37904;BME280;23738;50.422;18.758;2023-10-31T08:12:56;96872.09;;;16.38;66.20
37904;BME280;23738;50.422;18.758;2023-10-31T08:15:25;96872.13;;;16.35;66.39
37904;BME280;23738;50.422;18.758;2023-10-31T08:17:55;96864.73;;;16.29;66.44
37904;BME280;23738;50.422;18.758;2023-10-31T08:20:24;96874.45;;;16.29;66.79
37904;BME280;23738;50.422;18.758;2023-10-31T08:22:54;96877.30;;;16.25;66.73
37904;BME280;23738;50.422;18.758;2023-10-31T08:25:24;96879.18;;;16.21;66.87
37904;BME280;23738;50.422;18.758;2023-10-31T08:27:53;96868.87;;;16.19;67.06
37904;BME280;23738;50.422;18.758;2023-10-31T08:30:22;96870.04;;;16.19;67.18
37904;BME280;23738;50.422;18.758;2023-10-31T08:32:52;96879.58;;;16.17;67.31
37904;BME280;23738;50.422;18.758;2023-10-31T08:35:22;96881.02;;;16.16;67.73
37904;BME280;23738;50.422;18.758;2023-10-31T08:37:51;96887.25;;;16.15;67.67
37904;BME280;23738;50.422;18.758;2023-10-31T08:40:20;96894.27;;;16.17;67.72
37904;BME280;23738;50.422;18.758;2023-10-31T08:42:50;96895.74;;;16.21;68.03
37904;BME280;23738;50.422;18.758;2023-10-31T08:45:20;96907.40;;;16.24;68.13
37904;BME280;23738;50.422;18.758;2023-10-31T08:47:49;96904.73;;;16.26;68.21
37904;BME280;23738;50.422;18.758;2023-10-31T08:50:19;96908.55;;;16.29;68.65
37904;BME280;23738;50.422;18.758;2023-10-31T08:52:48;96914.19;;;16.29;68.58
37904;BME280;23738;50.422;18.758;2023-10-31T08:55:18;96915.46;;;16.30;68.66
37904;BME280;23738;50.422;18.758;2023-10-31T08:57:48;96918.55;;;16.28;68.87
37904;BME280;23738;50.422;18.758;2023-10-31T09:00:19;96921.48;;;16.29;69.15
37904;BME280;23738;50.422;18.758;2023-10-31T09:02:48;96923.61;;;16.31;69.24
37904;BME280;23738;50.422;18.758;2023-10-31T09:05:18;96920.47;;;16.32;69.37
37904;BME280;23738;50.422;18.758;2023-10-31T09:07:47;96920.66;;;16.36;69.78
37904;BME280;23738;50.422;18.758;2023-10-31T09:10:17;96919.95;;;16.39;70.07
37904;BME280;23738;50.422;18.758;2023-10-31T09:12:46;96930.20;;;16.44;70.57
37904;BME280;23738;50.422;18.758;2023-10-31T09:15:16;96932.99;;;16.51;70.54
37904;BME280;23738;50.422;18.758;2023-10-31T09:17:47;96933.23;;;16.56;70.59
37904;BME280;23738;50.422;18.758;2023-10-31T09:20:16;96945.21;;;16.62;70.70
37904;BME280;23738;50.422;18.758;2023-10-31T09:22:46;96950.91;;;16.64;71.00
37904;BME280;23738;50.422;18.758;2023-10-31T09:25:15;96959.17;;;16.63;70.99
37904;BME280;23738;50.422;18.758;2023-10-31T09:27:44;96960.63;;;16.61;71.04
37904;BME280;23738;50.422;18.758;2023-10-31T09:30:14;96963.44;;;16.59;71.11
37904;BME280;23738;50.422;18.758;2023-10-31T09:32:45;96974.17;;;16.55;71.15
37904;BME280;23738;50.422;18.758;2023-10-31T09:35:14;96978.65;;;16.54;71.27
37904;BME280;23738;50.422;18.758;2023-10-31T09:37:44;96978.06;;;16.55;71.48
37904;BME280;23738;50.422;18.758;2023-10-31T09:40:17;96977.63;;;16.56;71.62
37904;BME280;23738;50.422;18.758;2023-10-31T09:42:47;96985.86;;;16.53;71.71
37904;BME280;23738;50.422;18.758;2023-10-31T09:45:18;96988.50;;;16.51;71.80
37904;BME280;23738;50.422;18.758;2023-10-31T09:47:47;96995.36;;;16.52;72.20
37904;BME280;23738;50.422;18.758;2023-10-31T09:50:17;97000.80;;;16.51;72.02
37904;BME280;23738;50.422;18.758;2023-10-31T09:52:47;96999.85;;;16.49;72.52
37904;BME280;23738;50.422;18.758;2023-10-31T09:55:17;96994.48;;;16.49;72.25
37904;BME280;23738;50.422;18.758;2023-10-31T09:57:47;96991.04;;;16.53;72.46
37904;BME280;23738;50.422;18.758;2023-10-31T10:00:18;96992.98;;;16.58;72.53
37904;BME280;23738;50.422;18.758;2023-10-31T10:02:47;96996.88;;;16.61;72.64
37904;BME280;23738;50.422;18.758;2023-10-31T10:05:17;96995.22;;;16.62;72.76
37904;BME280;23738;50.422;18.758;2023-10-31T10:07:48;96995.65;;;16.63;72.89
37904;BME280;23738;50.422;18.758;2023-10-31T10:10:18;96993.24;;;16.60;72.67
37904;BME280;23738;50.422;18.758;2023-10-31T10:12:48;96997.70;;;16.60;73.02
37904;BME280;23738;50.422;18.758;2023-10-31T10:15:17;97005.20;;;16.62;73.02
37904;BME280;23738;50.422;18.758;2023-10-31T10:17:51;97010.36;;;16.65;73.04
37904;BME280;23738;50.422;18.758;2023-10-31T10:20:21;97008.60;;;16.66;73.20
37904;BME280;23738;50.422;18.758;2023-10-31T10:22:50;97012.33;;;16.66;73.22
37904;BME280;23738;50.422;18.758;2023-10-31T10:25:19;97005.23;;;16.64;73.29
37904;BME280;23738;50.422;18.758;2023-10-31T10:27:49;97008.82;;;16.64;73.40
37904;BME280;23738;50.422;18.758;2023-10-31T10:30:18;97007.38;;;16.61;73.32
37904;BME280;23738;50.422;18.758;2023-10-31T10:32:50;97008.77;;;16.63;73.46
37904;BME280;23738;50.422;18.758;2023-10-31T10:35:20;97004.87;;;16.66;73.53
37904;BME280;23738;50.422;18.758;2023-10-31T10:37:50;96997.36;;;16.71;73.58
37904;BME280;23738;50.422;18.758;2023-10-31T10:40:22;96997.89;;;16.82;73.69
37904;BME280;23738;50.422;18.758;2023-10-31T10:42:51;96999.29;;;17.05;73.92
37904;BME280;23738;50.422;18.758;2023-10-31T10:45:26;97004.50;;;17.23;73.69
37904;BME280;23738;50.422;18.758;2023-10-31T10:47:59;97002.70;;;17.27;73.63
37904;BME280;23738;50.422;18.758;2023-10-31T10:50:35;96999.55;;;17.27;73.56
37904;BME280;23738;50.422;18.758;2023-10-31T10:53:16;97004.09;;;17.28;73.40
37904;BME280;23738;50.422;18.758;2023-10-31T10:55:55;97001.90;;;17.26;73.40
37904;BME280;23738;50.422;18.758;2023-10-31T10:58:30;97005.06;;;17.25;73.34
37904;BME280;23738;50.422;18.758;2023-10-31T11:01:03;96998.97;;;17.25;73.41
37904;BME280;23738;50.422;18.758;2023-10-31T11:03:33;96999.55;;;17.25;73.39
37904;BME280;23738;50.422;18.758;2023-10-31T11:06:11;97003.75;;;17.21;73.09
37904;BME280;23738;50.422;18.758;2023-10-31T11:08:41;97003.05;;;17.16;73.27
37904;BME280;23738;50.422;18.758;2023-10-31T11:11:12;97002.98;;;17.11;73.05
37904;BME280;23738;50.422;18.758;2023-10-31T11:13:44;97004.05;;;17.03;73.19
37904;BME280;23738;50.422;18.758;2023-10-31T11:16:17;97016.23;;;17.00;73.24
37904;BME280;23738;50.422;18.758;2023-10-31T11:18:50;97023.69;;;16.93;73.12
37904;BME280;23738;50.422;18.758;2023-10-31T11:21:19;97029.22;;;16.89;73.31
37904;BME280;23738;50.422;18.758;2023-10-31T11:23:58;97029.27;;;16.88;73.31
37904;BME280;23738;50.422;18.758;2023-10-31T11:26:28;97026.66;;;16.86;73.44
37904;BME280;23738;50.422;18.758;2023-10-31T11:29:11;97027.22;;;16.83;73.44
37904;BME280;23738;50.422;18.758;2023-10-31T11:31:43;97025.59;;;16.78;73.58
37904;BME280;23738;50.422;18.758;2023-10-31T11:34:12;97029.67;;;16.73;73.56
37904;BME280;23738;50.422;18.758;2023-10-31T11:36:42;97026.65;;;16.68;73.57
37904;BME280;23738;50.422;18.758;2023-10-31T11:39:21;97022.69;;;16.63;73.65
37904;BME280;23738;50.422;18.758;2023-10-31T11:41:55;97014.52;;;16.61;73.81
37904;BME280;23738;50.422;18.758;2023-10-31T11:44:26;97016.39;;;16.62;73.84
37904;BME280;23738;50.422;18.758;2023-10-31T11:46:59;97020.41;;;16.68;73.93
37904;BME280;23738;50.422;18.758;2023-10-31T11:49:49;97024.26;;;16.78;74.15
37904;BME280;23738;50.422;18.758;2023-10-31T11:52:18;97023.41;;;16.85;73.97
37904;BME280;23738;50.422;18.758;2023-10-31T11:54:48;97014.35;;;16.84;73.91
37904;BME280;23738;50.422;18.758;2023-10-31T11:57:28;97013.74;;;16.88;73.96
37904;BME280;23738;50.422;18.758;2023-10-31T11:59:58;97007.77;;;16.87;73.99
37904;BME280;23738;50.422;18.758;2023-10-31T12:02:28;97004.58;;;16.88;73.90
37904;BME280;23738;50.422;18.758;2023-10-31T12:05:10;97003.61;;;16.88;74.04
37904;BME280;23738;50.422;18.758;2023-10-31T12:07:46;97000.36;;;16.89;73.98
37904;BME280;23738;50.422;18.758;2023-10-31T12:10:23;96998.81;;;16.90;74.07
37904;BME280;23738;50.422;18.758;2023-10-31T12:12:53;96991.64;;;16.92;74.23
37904;BME280;23738;50.422;18.758;2023-10-31T12:15:23;96994.34;;;16.95;74.34
37904;BME280;23738;50.422;18.758;2023-10-31T12:17:52;96994.94;;;16.94;74.44
37904;BME280;23738;50.422;18.758;2023-10-31T12:20:26;96998.97;;;16.89;74.43
37904;BME280;23738;50.422;18.758;2023-10-31T12:23:05;96991.11;;;16.84;74.55
37904;BME280;23738;50.422;18.758;2023-10-31T12:25:34;96988.15;;;16.80;74.66
37904;BME280;23738;50.422;18.758;2023-10-31T12:28:19;96981.61;;;16.75;74.85
37904;BME280;23738;50.422;18.758;2023-10-31T12:30:50;96978.54;;;16.71;74.75
37904;BME280;23738;50.422;18.758;2023-10-31T12:33:20;96971.84;;;16.68;74.88
37904;BME280;23738;50.422;18.758;2023-10-31T12:35:50;96975.46;;;16.68;75.09
37904;BME280;23738;50.422;18.758;2023-10-31T12:38:20;96967.95;;;16.67;75.13
37904;BME280;23738;50.422;18.758;2023-10-31T12:40:50;96963.33;;;16.67;75.05
37904;BME280;23738;50.422;18.758;2023-10-31T12:43:21;96962.69;;;16.64;75.15
37904;BME280;23738;50.422;18.758;2023-10-31T12:45:50;96975.33;;;16.61;75.09
37904;BME280;23738;50.422;18.758;2023-10-31T12:48:25;96985.40;;;16.60;75.32
37904;BME280;23738;50.422;18.758;2023-10-31T12:51:08;96982.16;;;16.59;75.27
37904;BME280;23738;50.422;18.758;2023-10-31T12:53:37;96977.21;;;16.56;75.34
37904;BME280;23738;50.422;18.758;2023-10-31T12:56:07;96982.81;;;16.53;75.41
37904;BME280;23738;50.422;18.758;2023-10-31T12:58:37;96987.21;;;16.51;75.51
37904;BME280;23738;50.422;18.758;2023-10-31T13:01:13;96995.85;;;16.50;75.69
37904;BME280;23738;50.422;18.758;2023-10-31T13:03:51;96997.98;;;16.49;75.72
37904;BME280;23738;50.422;18.758;2023-10-31T13:06:21;96992.50;;;16.47;75.77